sensor_id;sensor_type;location;lat;lon;timestamp;temperature;humidity
72762;SHT30;60886;55.034;73.150;2022-08-19T00:00:17;9.27;77.20
72762;SHT30;60886;55.034;73.150;2022-08-19T00:02:45;9.29;77.09
72762;SHT30;60886;55.034;73.150;2022-08-19T00:05:14;9.35;77.18
72762;SHT30;60886;55.034;73.150;2022-08-19T00:07:47;9.35;76.97
72762;SHT30;60886;55.034;73.150;2022-08-19T00:10:24;9.35;77.35
72762;SHT30;60886;55.034;73.150;2022-08-19T00:13:01;9.34;76.84
72762;SHT30;60886;55.034;73.150;2022-08-19T00:15:27;9.38;76.93
72762;SHT30;60886;55.034;73.150;2022-08-19T00:18:04;9.38;76.82
72762;SHT30;60886;55.034;73.150;2022-08-19T00:20:41;9.39;76.65
72762;SHT30;60886;55.034;73.150;2022-08-19T00:23:08;9.41;76.87
72762;SHT30;60886;55.034;73.150;2022-08-19T00:25:45;9.41;76.73
72762;SHT30;60886;55.034;73.150;2022-08-19T00:28:12;9.39;76.66
72762;SHT30;60886;55.034;73.150;2022-08-19T00:30:48;9.46;76.53
72762;SHT30;60886;55.034;73.150;2022-08-19T00:33:15;9.51;76.58
72762;SHT30;60886;55.034;73.150;2022-08-19T00:35:55;9.45;76.91
72762;SHT30;60886;55.034;73.150;2022-08-19T00:38:33;9.48;77.10
72762;SHT30;60886;55.034;73.150;2022-08-19T00:41:14;9.52;76.85
72762;SHT30;60886;55.034;73.150;2022-08-19T00:44:00;9.55;76.77
72762;SHT30;60886;55.034;73.150;2022-08-19T00:46:47;9.56;76.94
72762;SHT30;60886;55.034;73.150;2022-08-19T00:49:29;9.59;77.07
72762;SHT30;60886;55.034;73.150;2022-08-19T00:52:18;9.61;76.93
72762;SHT30;60886;55.034;73.150;2022-08-19T00:54:47;9.65;76.70
72762;SHT30;60886;55.034;73.150;2022-08-19T00:57:16;9.68;76.94
72762;SHT30;60886;55.034;73.150;2022-08-19T00:59:46;9.66;76.85
72762;SHT30;60886;55.034;73.150;2022-08-19T01:02:15;9.66;77.09
72762;SHT30;60886;55.034;73.150;2022-08-19T01:04:41;9.69;76.75
72762;SHT30;60886;55.034;73.150;2022-08-19T01:07:11;9.72;76.64
72762;SHT30;60886;55.034;73.150;2022-08-19T01:09:53;9.79;76.60
72762;SHT30;60886;55.034;73.150;2022-08-19T01:12:20;9.83;76.22
72762;SHT30;60886;55.034;73.150;2022-08-19T01:14:47;9.83;76.51
72762;SHT30;60886;55.034;73.150;2022-08-19T01:17:15;9.87;76.58
72762;SHT30;60886;55.034;73.150;2022-08-19T01:19:43;9.83;76.53
72762;SHT30;60886;55.034;73.150;2022-08-19T01:22:16;9.85;76.22
72762;SHT30;60886;55.034;73.150;2022-08-19T01:24:54;9.83;76.39
72762;SHT30;60886;55.034;73.150;2022-08-19T01:27:21;9.83;76.49
72762;SHT30;60886;55.034;73.150;2022-08-19T01:29:49;9.90;76.18
72762;SHT30;60886;55.034;73.150;2022-08-19T01:32:16;9.92;76.27
72762;SHT30;60886;55.034;73.150;2022-08-19T01:34:53;9.96;76.19
72762;SHT30;60886;55.034;73.150;2022-08-19T01:37:19;9.99;76.28
72762;SHT30;60886;55.034;73.150;2022-08-19T01:39:46;10.03;76.09
72762;SHT30;60886;55.034;73.150;2022-08-19T01:42:12;10.03;75.88
72762;SHT30;60886;55.034;73.150;2022-08-19T01:44:40;10.04;75.86
72762;SHT30;60886;55.034;73.150;2022-08-19T01:47:09;10.04;75.71
72762;SHT30;60886;55.034;73.150;2022-08-19T01:49:36;10.12;76.18
72762;SHT30;60886;55.034;73.150;2022-08-19T01:52:05;10.09;76.00
72762;SHT30;60886;55.034;73.150;2022-08-19T01:54:34;10.10;75.48
72762;SHT30;60886;55.034;73.150;2022-08-19T01:57:05;10.06;75.70
72762;SHT30;60886;55.034;73.150;2022-08-19T01:59:32;10.10;75.27
72762;SHT30;60886;55.034;73.150;2022-08-19T02:02:05;10.14;75.68
72762;SHT30;60886;55.034;73.150;2022-08-19T02:04:34;10.18;74.91
72762;SHT30;60886;55.034;73.150;2022-08-19T02:07:01;10.17;75.23
72762;SHT30;60886;55.034;73.150;2022-08-19T02:09:30;10.18;75.38
72762;SHT30;60886;55.034;73.150;2022-08-19T02:11:57;10.23;75.13
72762;SHT30;60886;55.034;73.150;2022-08-19T02:14:24;10.27;74.85
72762;SHT30;60886;55.034;73.150;2022-08-19T02:16:50;10.30;75.13
72762;SHT30;60886;55.034;73.150;2022-08-19T02:19:17;10.32;74.86
72762;SHT30;60886;55.034;73.150;2022-08-19T02:21:51;10.32;75.18
72762;SHT30;60886;55.034;73.150;2022-08-19T02:24:27;10.33;74.69
72762;SHT30;60886;55.034;73.150;2022-08-19T02:26:54;10.36;74.29
72762;SHT30;60886;55.034;73.150;2022-08-19T02:29:21;10.38;74.64
72762;SHT30;60886;55.034;73.150;2022-08-19T02:31:47;10.37;74.42
72762;SHT30;60886;55.034;73.150;2022-08-19T02:34:14;10.41;74.44
72762;SHT30;60886;55.034;73.150;2022-08-19T02:36:43;10.47;74.39
72762;SHT30;60886;55.034;73.150;2022-08-19T02:39:22;10.50;73.95
72762;SHT30;60886;55.034;73.150;2022-08-19T02:41:48;10.54;74.15
72762;SHT30;60886;55.034;73.150;2022-08-19T02:44:16;10.55;74.13
72762;SHT30;60886;55.034;73.150;2022-08-19T02:46:47;10.57;73.96
72762;SHT30;60886;55.034;73.150;2022-08-19T02:49:17;10.60;73.84
72762;SHT30;60886;55.034;73.150;2022-08-19T02:51:45;10.67;74.01
72762;SHT30;60886;55.034;73.150;2022-08-19T02:54:13;10.61;73.69
72762;SHT30;60886;55.034;73.150;2022-08-19T02:56:41;10.64;73.31
72762;SHT30;60886;55.034;73.150;2022-08-19T02:59:07;10.65;73.52
72762;SHT30;60886;55.034;73.150;2022-08-19T04:00:08;10.81;73.21
72762;SHT30;60886;55.034;73.150;2022-08-19T04:02:41;10.91;73.67
72762;SHT30;60886;55.034;73.150;2022-08-19T04:05:08;11.01;72.78
72762;SHT30;60886;55.034;73.150;2022-08-19T04:07:34;11.08;72.54
72762;SHT30;60886;55.034;73.150;2022-08-19T04:10:11;11.16;72.74
72762;SHT30;60886;55.034;73.150;2022-08-19T04:12:41;11.29;72.34
72762;SHT30;60886;55.034;73.150;2022-08-19T04:15:14;11.46;71.99
72762;SHT30;60886;55.034;73.150;2022-08-19T04:17:46;11.59;71.32
72762;SHT30;60886;55.034;73.150;2022-08-19T04:20:12;11.76;70.30
72762;SHT30;60886;55.034;73.150;2022-08-19T04:22:49;11.82;70.73
72762;SHT30;60886;55.034;73.150;2022-08-19T04:25:20;11.91;70.29
72762;SHT30;60886;55.034;73.150;2022-08-19T04:27:57;12.00;69.58
72762;SHT30;60886;55.034;73.150;2022-08-19T04:30:28;12.00;68.70
72762;SHT30;60886;55.034;73.150;2022-08-19T04:33:05;12.13;68.74
72762;SHT30;60886;55.034;73.150;2022-08-19T04:35:44;12.25;68.39
72762;SHT30;60886;55.034;73.150;2022-08-19T04:38:11;12.34;68.25
72762;SHT30;60886;55.034;73.150;2022-08-19T04:40:51;12.48;67.78
72762;SHT30;60886;55.034;73.150;2022-08-19T04:43:38;12.58;68.07
72762;SHT30;60886;55.034;73.150;2022-08-19T04:46:09;12.59;67.96
72762;SHT30;60886;55.034;73.150;2022-08-19T04:48:37;12.71;67.22
72762;SHT30;60886;55.034;73.150;2022-08-19T04:51:07;12.78;66.89
72762;SHT30;60886;55.034;73.150;2022-08-19T04:53:42;12.78;66.96
72762;SHT30;60886;55.034;73.150;2022-08-19T04:56:14;12.79;66.22
72762;SHT30;60886;55.034;73.150;2022-08-19T04:58:42;12.82;65.56
72762;SHT30;60886;55.034;73.150;2022-08-19T05:01:13;12.88;65.81
72762;SHT30;60886;55.034;73.150;2022-08-19T05:03:39;13.02;65.95
72762;SHT30;60886;55.034;73.150;2022-08-19T05:06:08;13.16;65.17
72762;SHT30;60886;55.034;73.150;2022-08-19T05:08:38;13.35;64.45
72762;SHT30;60886;55.034;73.150;2022-08-19T05:11:10;13.43;63.23
72762;SHT30;60886;55.034;73.150;2022-08-19T05:13:37;13.47;63.90
72762;SHT30;60886;55.034;73.150;2022-08-19T05:16:11;13.54;63.28
72762;SHT30;60886;55.034;73.150;2022-08-19T05:18:39;13.60;63.46
72762;SHT30;60886;55.034;73.150;2022-08-19T05:21:24;13.70;63.02
72762;SHT30;60886;55.034;73.150;2022-08-19T05:24:09;13.81;63.47
72762;SHT30;60886;55.034;73.150;2022-08-19T05:26:42;13.88;62.97
72762;SHT30;60886;55.034;73.150;2022-08-19T05:29:09;13.97;61.42
72762;SHT30;60886;55.034;73.150;2022-08-19T05:31:38;13.97;61.29
72762;SHT30;60886;55.034;73.150;2022-08-19T05:34:10;14.07;61.41
72762;SHT30;60886;55.034;73.150;2022-08-19T05:36:40;14.07;62.33
72762;SHT30;60886;55.034;73.150;2022-08-19T05:39:18;14.18;61.81
72762;SHT30;60886;55.034;73.150;2022-08-19T05:41:49;14.12;61.05
72762;SHT30;60886;55.034;73.150;2022-08-19T05:44:20;14.08;61.81
72762;SHT30;60886;55.034;73.150;2022-08-19T05:46:48;13.97;61.11
72762;SHT30;60886;55.034;73.150;2022-08-19T05:49:15;13.98;61.69
72762;SHT30;60886;55.034;73.150;2022-08-19T05:51:47;14.04;62.16
72762;SHT30;60886;55.034;73.150;2022-08-19T05:54:15;14.14;61.54
72762;SHT30;60886;55.034;73.150;2022-08-19T05:56:43;14.24;61.92
72762;SHT30;60886;55.034;73.150;2022-08-19T05:59:21;14.45;61.33
72762;SHT30;60886;55.034;73.150;2022-08-19T06:01:49;14.73;61.78
72762;SHT30;60886;55.034;73.150;2022-08-19T06:04:19;14.83;60.60
72762;SHT30;60886;55.034;73.150;2022-08-19T06:06:48;14.90;60.36
72762;SHT30;60886;55.034;73.150;2022-08-19T06:09:21;14.90;60.16
72762;SHT30;60886;55.034;73.150;2022-08-19T06:11:57;14.85;60.22
72762;SHT30;60886;55.034;73.150;2022-08-19T06:14:31;14.87;60.19
72762;SHT30;60886;55.034;73.150;2022-08-19T06:16:59;14.86;59.38
72762;SHT30;60886;55.034;73.150;2022-08-19T06:19:28;14.80;59.34
72762;SHT30;60886;55.034;73.150;2022-08-19T06:22:00;14.85;59.59
72762;SHT30;60886;55.034;73.150;2022-08-19T06:24:28;14.96;59.40
72762;SHT30;60886;55.034;73.150;2022-08-19T06:26:56;14.95;59.24
72762;SHT30;60886;55.034;73.150;2022-08-19T06:29:24;14.90;59.59
72762;SHT30;60886;55.034;73.150;2022-08-19T06:31:54;14.87;60.86
72762;SHT30;60886;55.034;73.150;2022-08-19T06:34:32;14.80;61.13
72762;SHT30;60886;55.034;73.150;2022-08-19T06:37:00;14.72;61.17
72762;SHT30;60886;55.034;73.150;2022-08-19T06:39:33;14.75;61.43
72762;SHT30;60886;55.034;73.150;2022-08-19T06:42:02;14.80;61.63
72762;SHT30;60886;55.034;73.150;2022-08-19T06:44:30;14.92;62.34
72762;SHT30;60886;55.034;73.150;2022-08-19T06:47:03;14.89;61.02
72762;SHT30;60886;55.034;73.150;2022-08-19T06:49:30;14.79;61.19
72762;SHT30;60886;55.034;73.150;2022-08-19T06:52:00;14.83;61.33
72762;SHT30;60886;55.034;73.150;2022-08-19T06:54:27;14.85;60.27
72762;SHT30;60886;55.034;73.150;2022-08-19T06:56:57;14.79;60.22
72762;SHT30;60886;55.034;73.150;2022-08-19T06:59:24;14.76;61.05
72762;SHT30;60886;55.034;73.150;2022-08-19T07:01:56;14.65;60.53
72762;SHT30;60886;55.034;73.150;2022-08-19T07:04:29;14.48;61.30
72762;SHT30;60886;55.034;73.150;2022-08-19T07:07:02;14.32;61.41
72762;SHT30;60886;55.034;73.150;2022-08-19T07:09:29;14.18;62.07
72762;SHT30;60886;55.034;73.150;2022-08-19T07:11:57;14.08;61.91
72762;SHT30;60886;55.034;73.150;2022-08-19T07:14:26;13.93;62.93
72762;SHT30;60886;55.034;73.150;2022-08-19T07:16:55;13.94;63.30
72762;SHT30;60886;55.034;73.150;2022-08-19T07:19:24;13.95;63.81
72762;SHT30;60886;55.034;73.150;2022-08-19T07:21:52;13.98;64.05
72762;SHT30;60886;55.034;73.150;2022-08-19T07:24:26;14.07;63.71
72762;SHT30;60886;55.034;73.150;2022-08-19T07:26:55;14.11;63.53
72762;SHT30;60886;55.034;73.150;2022-08-19T07:29:23;14.14;63.73
72762;SHT30;60886;55.034;73.150;2022-08-19T07:31:51;14.18;64.18
72762;SHT30;60886;55.034;73.150;2022-08-19T07:34:18;14.20;64.02
72762;SHT30;60886;55.034;73.150;2022-08-19T07:36:45;14.14;63.25
72762;SHT30;60886;55.034;73.150;2022-08-19T07:39:23;14.07;63.63
72762;SHT30;60886;55.034;73.150;2022-08-19T07:41:50;14.11;64.17
72762;SHT30;60886;55.034;73.150;2022-08-19T07:44:17;14.12;63.64
72762;SHT30;60886;55.034;73.150;2022-08-19T07:46:48;14.04;64.02
72762;SHT30;60886;55.034;73.150;2022-08-19T07:49:17;14.11;63.91
72762;SHT30;60886;55.034;73.150;2022-08-19T07:51:48;14.11;63.92
72762;SHT30;60886;55.034;73.150;2022-08-19T07:54:16;14.11;64.43
72762;SHT30;60886;55.034;73.150;2022-08-19T07:56:42;14.10;64.39
72762;SHT30;60886;55.034;73.150;2022-08-19T07:59:09;14.07;64.87
72762;SHT30;60886;55.034;73.150;2022-08-19T08:01:36;14.10;65.76
72762;SHT30;60886;55.034;73.150;2022-08-19T08:04:13;14.11;65.20
72762;SHT30;60886;55.034;73.150;2022-08-19T08:06:58;14.10;65.52
72762;SHT30;60886;55.034;73.150;2022-08-19T08:09:43;14.07;65.35
72762;SHT30;60886;55.034;73.150;2022-08-19T08:12:16;14.07;64.92
72762;SHT30;60886;55.034;73.150;2022-08-19T08:14:47;14.12;65.67
72762;SHT30;60886;55.034;73.150;2022-08-19T08:17:17;14.21;65.14
72762;SHT30;60886;55.034;73.150;2022-08-19T08:19:44;14.29;64.99
72762;SHT30;60886;55.034;73.150;2022-08-19T08:22:15;14.36;65.37
72762;SHT30;60886;55.034;73.150;2022-08-19T08:25:06;14.44;64.51
72762;SHT30;60886;55.034;73.150;2022-08-19T08:27:41;14.49;64.78
72762;SHT30;60886;55.034;73.150;2022-08-19T08:30:10;14.54;64.53
72762;SHT30;60886;55.034;73.150;2022-08-19T08:32:38;14.49;65.31
72762;SHT30;60886;55.034;73.150;2022-08-19T08:35:07;14.45;65.53
72762;SHT30;60886;55.034;73.150;2022-08-19T08:37:34;14.42;66.26
72762;SHT30;60886;55.034;73.150;2022-08-19T08:40:45;14.39;65.88
72762;SHT30;60886;55.034;73.150;2022-08-19T08:43:07;14.44;65.95
72762;SHT30;60886;55.034;73.150;2022-08-19T08:45:48;14.49;65.59
72762;SHT30;60886;55.034;73.150;2022-08-19T08:48:37;14.46;65.37
72762;SHT30;60886;55.034;73.150;2022-08-19T08:51:14;14.48;65.79
72762;SHT30;60886;55.034;73.150;2022-08-19T08:53:44;14.45;65.23
72762;SHT30;60886;55.034;73.150;2022-08-19T08:56:20;14.42;64.96
72762;SHT30;60886;55.034;73.150;2022-08-19T09:01:43;14.31;66.34
72762;SHT30;60886;55.034;73.150;2022-08-19T09:04:11;14.29;67.31
72762;SHT30;60886;55.034;73.150;2022-08-19T09:09:42;14.24;67.87
72762;SHT30;60886;55.034;73.150;2022-08-19T09:15:04;14.36;67.41
72762;SHT30;60886;55.034;73.150;2022-08-19T09:17:32;14.44;67.55
72762;SHT30;60886;55.034;73.150;2022-08-19T09:20:18;14.49;67.42
72762;SHT30;60886;55.034;73.150;2022-08-19T09:22:50;14.54;66.34
72762;SHT30;60886;55.034;73.150;2022-08-19T09:25:19;14.54;66.50
72762;SHT30;60886;55.034;73.150;2022-08-19T09:27:55;14.55;66.48
72762;SHT30;60886;55.034;73.150;2022-08-19T09:30:26;14.51;67.24
72762;SHT30;60886;55.034;73.150;2022-08-19T09:32:54;14.48;67.27
72762;SHT30;60886;55.034;73.150;2022-08-19T09:35:23;14.49;67.13
72762;SHT30;60886;55.034;73.150;2022-08-19T09:37:50;14.41;67.55
72762;SHT30;60886;55.034;73.150;2022-08-19T09:40:17;14.36;67.99
72762;SHT30;60886;55.034;73.150;2022-08-19T09:42:45;14.35;68.09
72762;SHT30;60886;55.034;73.150;2022-08-19T09:45:19;14.26;68.11
72762;SHT30;60886;55.034;73.150;2022-08-19T09:47:51;14.21;68.47
72762;SHT30;60886;55.034;73.150;2022-08-19T09:50:18;14.14;68.96
72762;SHT30;60886;55.034;73.150;2022-08-19T09:52:45;14.11;69.49
72762;SHT30;60886;55.034;73.150;2022-08-19T09:55:12;14.08;69.96
72762;SHT30;60886;55.034;73.150;2022-08-19T09:57:39;14.01;70.85
72762;SHT30;60886;55.034;73.150;2022-08-19T10:00:07;14.00;71.06
72762;SHT30;60886;55.034;73.150;2022-08-19T10:02:35;13.91;72.29
72762;SHT30;60886;55.034;73.150;2022-08-19T10:05:01;13.74;73.74
72762;SHT30;60886;55.034;73.150;2022-08-19T10:07:46;13.59;74.45
72762;SHT30;60886;55.034;73.150;2022-08-19T10:10:13;13.50;74.93
72762;SHT30;60886;55.034;73.150;2022-08-19T10:12:40;13.49;75.20
72762;SHT30;60886;55.034;73.150;2022-08-19T10:15:06;13.43;75.32
72762;SHT30;60886;55.034;73.150;2022-08-19T10:17:44;13.40;75.67
72762;SHT30;60886;55.034;73.150;2022-08-19T10:20:10;13.36;76.64
72762;SHT30;60886;55.034;73.150;2022-08-19T10:22:37;13.22;77.76
72762;SHT30;60886;55.034;73.150;2022-08-19T10:25:05;13.16;78.94
72762;SHT30;60886;55.034;73.150;2022-08-19T10:27:31;13.09;79.64
72762;SHT30;60886;55.034;73.150;2022-08-19T10:29:58;12.96;80.44
72762;SHT30;60886;55.034;73.150;2022-08-19T10:32:25;12.88;81.02
72762;SHT30;60886;55.034;73.150;2022-08-19T10:34:51;12.79;82.62
72762;SHT30;60886;55.034;73.150;2022-08-19T10:37:18;12.76;82.79
72762;SHT30;60886;55.034;73.150;2022-08-19T10:39:46;12.74;83.30
72762;SHT30;60886;55.034;73.150;2022-08-19T10:42:14;12.71;83.29
72762;SHT30;60886;55.034;73.150;2022-08-19T10:44:42;12.74;83.64
72762;SHT30;60886;55.034;73.150;2022-08-19T10:47:11;12.76;83.70
72762;SHT30;60886;55.034;73.150;2022-08-19T10:49:37;12.79;83.79
72762;SHT30;60886;55.034;73.150;2022-08-19T10:52:23;12.89;83.84
72762;SHT30;60886;55.034;73.150;2022-08-19T10:55:01;12.88;83.29
72762;SHT30;60886;55.034;73.150;2022-08-19T10:57:45;12.95;83.31
72762;SHT30;60886;55.034;73.150;2022-08-19T11:00:13;13.03;83.45
72762;SHT30;60886;55.034;73.150;2022-08-19T11:02:40;13.03;83.39
72762;SHT30;60886;55.034;73.150;2022-08-19T11:05:08;13.10;82.72
72762;SHT30;60886;55.034;73.150;2022-08-19T11:07:40;13.23;82.05
72762;SHT30;60886;55.034;73.150;2022-08-19T11:10:09;13.33;82.75
72762;SHT30;60886;55.034;73.150;2022-08-19T11:12:39;13.36;82.47
72762;SHT30;60886;55.034;73.150;2022-08-19T11:15:09;13.42;82.58
72762;SHT30;60886;55.034;73.150;2022-08-19T11:17:40;13.42;82.26
72762;SHT30;60886;55.034;73.150;2022-08-19T11:20:07;13.38;82.27
72762;SHT30;60886;55.034;73.150;2022-08-19T11:22:35;13.35;82.79
72762;SHT30;60886;55.034;73.150;2022-08-19T11:25:06;13.29;82.66
72762;SHT30;60886;55.034;73.150;2022-08-19T11:27:33;13.29;82.88
72762;SHT30;60886;55.034;73.150;2022-08-19T11:30:03;13.24;82.84
72762;SHT30;60886;55.034;73.150;2022-08-19T11:32:30;13.24;82.80
72762;SHT30;60886;55.034;73.150;2022-08-19T11:34:57;13.20;82.43
72762;SHT30;60886;55.034;73.150;2022-08-19T11:37:23;13.18;82.17
72762;SHT30;60886;55.034;73.150;2022-08-19T11:39:50;13.15;83.16
72762;SHT30;60886;55.034;73.150;2022-08-19T11:42:17;13.13;83.11
72762;SHT30;60886;55.034;73.150;2022-08-19T11:45:02;13.08;83.33
72762;SHT30;60886;55.034;73.150;2022-08-19T11:47:39;13.05;83.56
72762;SHT30;60886;55.034;73.150;2022-08-19T11:50:06;13.02;84.05
72762;SHT30;60886;55.034;73.150;2022-08-19T11:52:32;12.98;84.61
72762;SHT30;60886;55.034;73.150;2022-08-19T11:54:59;12.99;84.48
72762;SHT30;60886;55.034;73.150;2022-08-19T11:57:31;12.99;85.03
72762;SHT30;60886;55.034;73.150;2022-08-19T11:59:57;13.00;85.11
72762;SHT30;60886;55.034;73.150;2022-08-19T12:02:34;13.00;85.17
72762;SHT30;60886;55.034;73.150;2022-08-19T12:05:00;12.99;85.68
72762;SHT30;60886;55.034;73.150;2022-08-19T12:07:29;13.02;85.94
72762;SHT30;60886;55.034;73.150;2022-08-19T12:09:59;13.02;85.45
72762;SHT30;60886;55.034;73.150;2022-08-19T12:12:26;13.00;85.81
72762;SHT30;60886;55.034;73.150;2022-08-19T12:14:54;13.03;86.05
72762;SHT30;60886;55.034;73.150;2022-08-19T12:17:25;13.10;86.04
72762;SHT30;60886;55.034;73.150;2022-08-19T12:19:53;13.19;86.07
72762;SHT30;60886;55.034;73.150;2022-08-19T12:22:20;13.24;85.79
72762;SHT30;60886;55.034;73.150;2022-08-19T12:24:47;13.33;85.56
72762;SHT30;60886;55.034;73.150;2022-08-19T12:27:16;13.32;85.61
72762;SHT30;60886;55.034;73.150;2022-08-19T12:29:43;13.33;85.60
72762;SHT30;60886;55.034;73.150;2022-08-19T12:32:09;13.36;85.37
72762;SHT30;60886;55.034;73.150;2022-08-19T12:34:36;13.38;85.71
72762;SHT30;60886;55.034;73.150;2022-08-19T12:37:05;13.38;85.27
72762;SHT30;60886;55.034;73.150;2022-08-19T12:39:37;13.39;85.22
72762;SHT30;60886;55.034;73.150;2022-08-19T12:42:04;13.44;85.02
72762;SHT30;60886;55.034;73.150;2022-08-19T12:44:31;13.46;84.43
72762;SHT30;60886;55.034;73.150;2022-08-19T12:46:58;13.46;84.46
72762;SHT30;60886;55.034;73.150;2022-08-19T12:49:27;13.42;84.03
72762;SHT30;60886;55.034;73.150;2022-08-19T12:51:54;13.42;84.51
72762;SHT30;60886;55.034;73.150;2022-08-19T12:54:21;13.42;85.00
72762;SHT30;60886;55.034;73.150;2022-08-19T12:56:47;13.42;84.69
72762;SHT30;60886;55.034;73.150;2022-08-19T12:59:14;13.39;84.55
72762;SHT30;60886;55.034;73.150;2022-08-19T13:01:44;13.42;84.26
72762;SHT30;60886;55.034;73.150;2022-08-19T13:04:11;13.42;84.51
72762;SHT30;60886;55.034;73.150;2022-08-19T13:06:37;13.40;84.48
72762;SHT30;60886;55.034;73.150;2022-08-19T13:09:04;13.38;84.15
72762;SHT30;60886;55.034;73.150;2022-08-19T13:11:31;13.33;84.34
72762;SHT30;60886;55.034;73.150;2022-08-19T13:14:00;13.32;84.98
72762;SHT30;60886;55.034;73.150;2022-08-19T13:16:28;13.32;84.90
72762;SHT30;60886;55.034;73.150;2022-08-19T13:18:55;13.32;85.19
72762;SHT30;60886;55.034;73.150;2022-08-19T13:21:24;13.26;84.89
72762;SHT30;60886;55.034;73.150;2022-08-19T13:23:52;13.22;85.13
72762;SHT30;60886;55.034;73.150;2022-08-19T13:26:19;13.13;85.27
72762;SHT30;60886;55.034;73.150;2022-08-19T13:28:46;13.09;85.40
72762;SHT30;60886;55.034;73.150;2022-08-19T13:31:33;13.00;85.82
72762;SHT30;60886;55.034;73.150;2022-08-19T13:34:25;13.02;85.58
72762;SHT30;60886;55.034;73.150;2022-08-19T13:36:54;12.99;85.76
72762;SHT30;60886;55.034;73.150;2022-08-19T13:39:21;12.88;85.81
72762;SHT30;60886;55.034;73.150;2022-08-19T13:41:49;12.85;86.01
72762;SHT30;60886;55.034;73.150;2022-08-19T13:44:17;12.82;85.99
72762;SHT30;60886;55.034;73.150;2022-08-19T13:47:04;12.85;86.01
72762;SHT30;60886;55.034;73.150;2022-08-19T13:49:34;12.81;86.13
72762;SHT30;60886;55.034;73.150;2022-08-19T13:52:03;12.79;86.16
72762;SHT30;60886;55.034;73.150;2022-08-19T13:54:30;12.76;86.21
72762;SHT30;60886;55.034;73.150;2022-08-19T13:56:57;12.76;86.47
72762;SHT30;60886;55.034;73.150;2022-08-19T13:59:23;12.74;86.67
72762;SHT30;60886;55.034;73.150;2022-08-19T14:01:50;12.71;86.72
72762;SHT30;60886;55.034;73.150;2022-08-19T14:04:17;12.68;86.80
72762;SHT30;60886;55.034;73.150;2022-08-19T14:06:43;12.66;86.90
72762;SHT30;60886;55.034;73.150;2022-08-19T14:09:10;12.62;87.13
72762;SHT30;60886;55.034;73.150;2022-08-19T14:11:36;12.62;87.11
72762;SHT30;60886;55.034;73.150;2022-08-19T14:14:04;12.62;87.10
72762;SHT30;60886;55.034;73.150;2022-08-19T14:16:30;12.64;86.84
72762;SHT30;60886;55.034;73.150;2022-08-19T14:18:56;12.54;87.01
72762;SHT30;60886;55.034;73.150;2022-08-19T14:21:24;12.56;87.17
72762;SHT30;60886;55.034;73.150;2022-08-19T14:23:57;12.59;87.12
72762;SHT30;60886;55.034;73.150;2022-08-19T14:26:24;12.58;87.17
72762;SHT30;60886;55.034;73.150;2022-08-19T14:28:50;12.58;87.20
72762;SHT30;60886;55.034;73.150;2022-08-19T14:31:19;12.56;87.23
72762;SHT30;60886;55.034;73.150;2022-08-19T14:33:47;12.58;87.26
72762;SHT30;60886;55.034;73.150;2022-08-19T14:36:14;12.61;87.46
72762;SHT30;60886;55.034;73.150;2022-08-19T14:38:51;12.58;87.42
72762;SHT30;60886;55.034;73.150;2022-08-19T14:41:20;12.61;87.46
72762;SHT30;60886;55.034;73.150;2022-08-19T14:43:49;12.58;87.52
72762;SHT30;60886;55.034;73.150;2022-08-19T14:46:18;12.56;87.46
72762;SHT30;60886;55.034;73.150;2022-08-19T14:48:53;12.58;87.41
72762;SHT30;60886;55.034;73.150;2022-08-19T14:51:21;12.58;87.32
72762;SHT30;60886;55.034;73.150;2022-08-19T14:53:48;12.61;87.37
72762;SHT30;60886;55.034;73.150;2022-08-19T14:56:22;12.65;87.27
72762;SHT30;60886;55.034;73.150;2022-08-19T14:58:49;12.66;87.17
72762;SHT30;60886;55.034;73.150;2022-08-19T15:01:20;12.64;87.27
72762;SHT30;60886;55.034;73.150;2022-08-19T15:03:48;12.64;87.27
72762;SHT30;60886;55.034;73.150;2022-08-19T15:06:15;12.64;87.25
72762;SHT30;60886;55.034;73.150;2022-08-19T15:08:42;12.62;87.42
72762;SHT30;60886;55.034;73.150;2022-08-19T15:11:14;12.61;87.39
72762;SHT30;60886;55.034;73.150;2022-08-19T15:13:43;12.62;87.41
72762;SHT30;60886;55.034;73.150;2022-08-19T15:16:10;12.61;87.47
72762;SHT30;60886;55.034;73.150;2022-08-19T15:18:37;12.61;87.58
72762;SHT30;60886;55.034;73.150;2022-08-19T15:21:04;12.58;87.67
72762;SHT30;60886;55.034;73.150;2022-08-19T15:23:31;12.58;87.61
72762;SHT30;60886;55.034;73.150;2022-08-19T15:25:57;12.58;87.66
72762;SHT30;60886;55.034;73.150;2022-08-19T15:28:25;12.58;87.65
72762;SHT30;60886;55.034;73.150;2022-08-19T15:30:57;12.61;87.59
72762;SHT30;60886;55.034;73.150;2022-08-19T15:33:24;12.64;87.44
72762;SHT30;60886;55.034;73.150;2022-08-19T15:35:51;12.62;87.50
72762;SHT30;60886;55.034;73.150;2022-08-19T15:38:19;12.62;87.57
72762;SHT30;60886;55.034;73.150;2022-08-19T15:40:48;12.58;87.75
72762;SHT30;60886;55.034;73.150;2022-08-19T15:43:17;12.61;87.78
72762;SHT30;60886;55.034;73.150;2022-08-19T15:45:44;12.61;87.91
72762;SHT30;60886;55.034;73.150;2022-08-19T15:48:10;12.59;87.83
72762;SHT30;60886;55.034;73.150;2022-08-19T15:50:37;12.61;87.74
72762;SHT30;60886;55.034;73.150;2022-08-19T15:53:08;12.64;87.77
72762;SHT30;60886;55.034;73.150;2022-08-19T15:55:43;12.58;87.83
72762;SHT30;60886;55.034;73.150;2022-08-19T15:58:13;12.59;87.95
72762;SHT30;60886;55.034;73.150;2022-08-19T16:01:00;12.62;87.96
72762;SHT30;60886;55.034;73.150;2022-08-19T16:03:45;12.59;87.83
72762;SHT30;60886;55.034;73.150;2022-08-19T16:06:32;12.58;87.88
72762;SHT30;60886;55.034;73.150;2022-08-19T16:09:02;12.59;87.88
72762;SHT30;60886;55.034;73.150;2022-08-19T16:11:32;12.59;87.83
72762;SHT30;60886;55.034;73.150;2022-08-19T16:14:00;12.56;87.85
72762;SHT30;60886;55.034;73.150;2022-08-19T16:16:32;12.55;87.99
72762;SHT30;60886;55.034;73.150;2022-08-19T16:19:06;12.54;87.88
72762;SHT30;60886;55.034;73.150;2022-08-19T16:21:34;12.54;87.95
72762;SHT30;60886;55.034;73.150;2022-08-19T16:24:05;12.51;88.16
72762;SHT30;60886;55.034;73.150;2022-08-19T16:26:43;12.52;88.03
72762;SHT30;60886;55.034;73.150;2022-08-19T16:29:10;12.52;88.09
72762;SHT30;60886;55.034;73.150;2022-08-19T16:31:46;12.51;87.96
72762;SHT30;60886;55.034;73.150;2022-08-19T16:34:14;12.51;87.96
72762;SHT30;60886;55.034;73.150;2022-08-19T16:36:46;12.51;88.05
72762;SHT30;60886;55.034;73.150;2022-08-19T16:39:14;12.49;88.07
72762;SHT30;60886;55.034;73.150;2022-08-19T16:41:42;12.49;88.04
72762;SHT30;60886;55.034;73.150;2022-08-19T16:44:11;12.49;88.18